Time;durP1;ratioP1;P1;durP2;ratioP2;P2;SDS_P1;SDS_P2;PMS_P1;PMS_P2;Temp;Humidity;BMP_temperature;BMP_pressure;BME280_temperature;BME280_humidity;BME280_pressure;Samples;Min_cycle;Max_cycle;Signal;HPM_P1;HPM_P2
2023/09/01 00:01:29;;;;;;;1.00;0.70;;;18.70;60.00;20.50;101001.00;;;;5089660;28;20210;-78
2023/09/01 00:03:57;;;;;;;3.40;1.20;;;18.70;59.90;20.50;101005.00;;;;5089537;28;20217;-78
2023/09/01 00:06:25;;;;;;;2.65;1.00;;;18.70;60.00;20.50;100995.00;;;;5077788;28;20211;-78
2023/09/01 00:08:52;;;;;;;1.98;1.05;;;18.70;60.00;20.50;100993.00;;;;5078767;28;20217;-78
2023/09/01 00:11:19;;;;;;;2.03;1.08;;;18.70;60.00;20.40;101008.00;;;;5089314;28;20568;-78
2023/09/01 00:13:47;;;;;;;2.50;1.38;;;18.70;60.00;20.40;101007.00;;;;5087898;28;20213;-78
2023/09/01 00:16:14;;;;;;;2.47;1.45;;;18.70;60.20;20.40;101007.00;;;;5089524;28;20206;-78
2023/09/01 00:18:41;;;;;;;1.42;1.23;;;18.70;60.20;20.40;101004.00;;;;5089298;28;20191;-78
2023/09/01 00:21:08;;;;;;;2.42;1.50;;;18.70;60.10;20.40;101007.00;;;;5089018;28;20230;-78
2023/09/01 00:23:37;;;;;;;1.30;1.00;;;18.70;60.00;20.40;101014.00;;;;5088259;28;20212;-78
2023/09/01 00:26:04;;;;;;;1.58;1.15;;;18.70;60.10;20.40;101004.00;;;;5088930;28;20194;-78
2023/09/01 00:28:31;;;;;;;3.75;1.58;;;18.70;60.20;20.40;100998.00;;;;5088800;28;20233;-78
2023/09/01 00:30:59;;;;;;;2.10;1.40;;;18.60;60.90;20.40;101001.00;;;;5088254;28;20198;-78
2023/09/01 00:33:30;;;;;;;3.72;1.77;;;18.70;60.30;20.40;101008.00;;;;5075195;28;20218;-78
2023/09/01 00:35:59;;;;;;;4.13;2.08;;;18.60;60.40;20.40;101008.00;;;;5070708;28;20605;-78
2023/09/01 00:38:29;;;;;;;2.42;1.67;;;18.60;60.30;20.40;101016.00;;;;5087065;28;20202;-78
2023/09/01 00:40:57;;;;;;;2.75;1.52;;;18.60;60.40;20.40;101007.00;;;;5088238;28;20221;-78
2023/09/01 00:43:25;;;;;;;2.72;1.38;;;18.60;60.50;20.40;101006.00;;;;5088543;28;20202;-77
2023/09/01 00:45:52;;;;;;;1.95;1.67;;;18.60;60.40;20.40;101005.00;;;;5088850;28;20593;-78
2023/09/01 00:48:20;;;;;;;2.83;1.70;;;18.60;60.40;20.30;100991.00;;;;5081809;28;20202;-78
2023/09/01 00:50:50;;;;;;;3.53;1.95;;;18.60;60.40;20.30;101011.00;;;;5088946;28;20285;-78
2023/09/01 00:53:19;;;;;;;3.92;1.98;;;18.60;60.60;20.30;101016.00;;;;5087936;28;20726;-78
2023/09/01 00:55:47;;;;;;;3.83;2.20;;;18.60;60.60;20.30;101014.00;;;;5077612;28;20202;-78
2023/09/01 00:58:15;;;;;;;2.55;1.70;;;18.60;60.60;20.30;101016.00;;;;5087930;28;20197;-78
2023/09/01 01:00:42;;;;;;;2.60;2.05;;;18.60;60.60;20.30;101013.00;;;;5080156;28;20225;-78
2023/09/01 01:03:11;;;;;;;3.67;2.03;;;18.50;60.60;20.30;101012.00;;;;5088942;28;20195;-78
2023/09/01 01:05:55;;;;;;;2.92;1.80;;;18.50;60.70;20.20;101008.00;;;;5082130;28;20190;-78
2023/09/01 01:08:36;;;;;;;3.55;1.85;;;18.50;60.80;20.20;101008.00;;;;5080768;28;21282;-78
2023/09/01 01:11:25;;;;;;;1.98;1.77;;;18.50;60.90;20.20;101011.00;;;;5087681;28;20201;-78
2023/09/01 01:14:03;;;;;;;2.30;1.67;;;18.50;60.90;20.20;101008.00;;;;5088698;28;20209;-78
2023/09/01 01:16:32;;;;;;;3.92;2.20;;;18.50;61.00;20.20;101011.00;;;;5087463;28;20601;-78
2023/09/01 01:19:12;;;;;;;3.03;1.85;;;18.50;60.90;20.20;101014.00;;;;5087473;28;20202;-78
2023/09/01 01:21:45;;;;;;;3.67;2.08;;;18.50;61.00;20.20;101013.00;;;;5084321;28;20483;-78
2023/09/01 01:24:14;;;;;;;4.18;2.70;;;18.50;61.20;20.20;101012.00;;;;5080778;28;20896;-78
2023/09/01 01:26:41;;;;;;;3.10;1.83;;;18.50;61.20;20.20;101006.00;;;;5072497;28;20201;-78
2023/09/01 01:29:08;;;;;;;3.13;2.15;;;18.40;61.20;20.20;100998.00;;;;5074378;28;20199;-78
2023/09/01 01:31:35;;;;;;;3.22;2.25;;;18.40;61.20;20.20;101002.00;;;;5067548;28;20656;-78
2023/09/01 01:34:16;;;;;;;4.00;2.17;;;18.40;61.30;20.10;101012.00;;;;5076633;28;20202;-78
2023/09/01 01:36:55;;;;;;;3.30;2.08;;;18.40;61.40;20.10;101031.00;;;;5091851;28;20243;-78
2023/09/01 01:39:29;;;;;;;3.30;2.28;;;18.40;61.50;20.10;101027.00;;;;5078283;28;20210;-78
2023/09/01 01:42:03;;;;;;;3.17;2.30;;;18.40;61.40;20.10;101020.00;;;;5073112;28;20198;-78
2023/09/01 01:44:35;;;;;;;2.40;2.00;;;18.50;61.60;20.10;101015.00;;;;5077393;28;20231;-79
2023/09/01 01:47:05;;;;;;;2.95;2.13;;;18.50;61.50;20.20;101012.00;;;;5072214;28;20669;-78
2023/09/01 01:49:32;;;;;;;3.70;2.50;;;18.40;61.50;20.20;101009.00;;;;5079042;28;20209;-78
2023/09/01 01:52:02;;;;;;;3.83;1.70;;;18.40;61.50;20.20;101020.00;;;;5087344;28;20225;-78
2023/09/01 01:54:31;;;;;;;2.78;2.13;;;18.40;61.60;20.10;101022.00;;;;5088798;28;20198;-78
2023/09/01 01:56:58;;;;;;;3.53;2.03;;;18.40;61.60;20.20;101025.00;;;;5073689;28;20218;-78
2023/09/01 01:59:25;;;;;;;3.58;2.20;;;18.40;61.60;20.10;101013.00;;;;5071860;28;20206;-78
2023/09/01 02:01:52;;;;;;;4.32;2.47;;;18.40;61.60;20.10;101014.00;;;;5091176;28;20609;-78
2023/09/01 02:04:19;;;;;;;2.97;2.13;;;18.40;61.70;20.10;101015.00;;;;5091802;28;20194;-78
2023/09/01 02:06:47;;;;;;;3.25;2.42;;;18.40;61.60;20.10;101016.00;;;;5089150;28;20208;-78
2023/09/01 02:09:15;;;;;;;3.20;2.70;;;18.40;61.60;20.10;101016.00;;;;5087661;28;20206;-78
2023/09/01 02:11:44;;;;;;;3.60;2.72;;;18.40;61.70;20.10;101011.00;;;;5089283;28;20294;-78
2023/09/01 02:14:11;;;;;;;5.78;2.55;;;18.30;61.70;20.10;101016.00;;;;5091096;28;20198;-78
2023/09/01 02:16:39;;;;;;;3.35;2.67;;;18.30;61.70;20.10;101024.00;;;;5091456;28;20198;-78
2023/09/01 02:19:08;;;;;;;3.38;2.72;;;18.30;62.40;20.10;101021.00;;;;5090630;28;20202;-78
2023/09/01 02:21:35;;;;;;;4.10;2.80;;;18.30;61.80;20.10;101017.00;;;;5089010;28;20711;-78
2023/09/01 02:24:02;;;;;;;4.28;2.50;;;18.30;61.80;20.10;101021.00;;;;5084392;28;20679;-78
2023/09/01 02:26:29;;;;;;;11.48;3.10;;;18.30;61.90;20.10;101020.00;;;;5089128;28;20682;-78
2023/09/01 02:28:58;;;;;;;4.38;2.85;;;18.30;61.90;20.00;101017.00;;;;5090325;28;20582;-78
2023/09/01 02:31:25;;;;;;;3.60;2.63;;;18.30;62.00;20.00;101011.00;;;;5091298;28;20191;-78
2023/09/01 02:33:52;;;;;;;4.35;3.05;;;18.30;62.10;20.00;101015.00;;;;5090775;28;20240;-78
2023/09/01 02:36:26;;;;;;;4.15;2.60;;;18.30;62.10;20.00;101014.00;;;;5090907;28;20229;-78
2023/09/01 02:38:54;;;;;;;4.22;2.38;;;18.20;62.10;20.00;101012.00;;;;5091667;28;20198;-78
2023/09/01 02:41:21;;;;;;;3.33;2.15;;;18.20;62.10;20.00;101007.00;;;;5091059;28;20214;-78
2023/09/01 02:43:49;;;;;;;3.58;2.38;;;18.20;62.10;20.00;101014.00;;;;5072948;28;20201;-78
2023/09/01 02:46:17;;;;;;;3.58;2.65;;;18.20;62.20;20.00;101017.00;;;;5070761;28;20214;-78
2023/09/01 02:48:45;;;;;;;4.35;2.70;;;18.20;62.20;20.00;101021.00;;;;5078636;28;20209;-78
2023/09/01 02:51:12;;;;;;;4.55;2.70;;;18.20;62.20;20.00;101019.00;;;;5090410;28;20194;-78
2023/09/01 02:53:39;;;;;;;3.58;2.42;;;18.20;62.20;20.00;101010.00;;;;5089779;28;20236;-78
2023/09/01 02:56:06;;;;;;;6.45;2.85;;;18.20;62.30;20.00;101007.00;;;;5080059;28;20203;-78
2023/09/01 02:58:34;;;;;;;6.13;3.22;;;18.20;62.40;20.00;101005.00;;;;5073760;28;20202;-78
2023/09/01 03:01:07;;;;;;;4.38;2.75;;;18.20;62.40;19.90;101003.00;;;;5089407;28;20600;-78
2023/09/01 03:03:36;;;;;;;5.38;2.80;;;18.20;62.70;20.00;101002.00;;;;5088297;28;20727;-79
2023/09/01 03:06:05;;;;;;;5.85;2.88;;;18.20;62.60;20.00;101002.00;;;;5084269;28;20202;-78
2023/09/01 03:08:33;;;;;;;4.10;3.25;;;18.20;62.60;20.00;100993.00;;;;5090671;28;20335;-78
2023/09/01 03:11:00;;;;;;;6.13;3.22;;;18.20;62.70;20.00;100991.00;;;;5090257;28;20668;-78
2023/09/01 03:13:27;;;;;;;5.07;3.15;;;18.20;62.70;20.00;100984.00;;;;5089631;28;20197;-78
2023/09/01 03:15:55;;;;;;;3.85;3.10;;;18.20;62.80;20.00;100982.00;;;;5087382;28;20190;-78
2023/09/01 03:18:22;;;;;;;4.55;3.35;;;18.20;62.90;20.00;100977.00;;;;5080901;28;20232;-78
2023/09/01 03:20:52;;;;;;;3.65;3.05;;;18.20;62.90;20.00;100974.00;;;;5081965;28;20683;-78
2023/09/01 03:23:20;;;;;;;5.43;3.83;;;18.30;63.00;20.10;100974.00;;;;5088795;28;20256;-78
2023/09/01 03:25:55;;;;;;;5.55;3.22;;;18.30;63.00;20.00;100981.00;;;;5090332;28;20190;-78
2023/09/01 03:28:22;;;;;;;6.40;3.92;;;18.30;63.20;20.10;100985.00;;;;5074996;28;20259;-78
2023/09/01 03:30:49;;;;;;;7.22;4.10;;;18.30;63.10;20.10;100988.00;;;;5077778;28;20194;-78
2023/09/01 03:33:16;;;;;;;4.72;3.38;;;18.30;63.10;20.10;100989.00;;;;5083876;28;20197;-78
2023/09/01 03:35:43;;;;;;;6.13;3.83;;;18.40;63.20;20.10;100979.00;;;;5077452;28;20204;-78
2023/09/01 03:38:12;;;;;;;4.20;3.50;;;18.40;63.20;20.10;100977.00;;;;5081787;28;20199;-78
2023/09/01 03:40:39;;;;;;;6.55;3.47;;;18.40;63.20;20.10;100972.00;;;;5075821;28;20214;-78
2023/09/01 03:43:07;;;;;;;5.03;3.45;;;18.40;63.30;20.10;100968.00;;;;5075997;28;20206;-78
2023/09/01 03:45:34;;;;;;;5.80;4.03;;;18.40;63.20;20.20;100967.00;;;;5080587;28;20201;-78
2023/09/01 03:48:01;;;;;;;5.15;3.53;;;18.40;63.20;20.20;100968.00;;;;5087414;28;20190;-78
2023/09/01 03:50:28;;;;;;;7.47;3.78;;;18.50;63.30;20.20;100971.00;;;;5080012;28;20202;-78
2023/09/01 03:52:55;;;;;;;4.40;3.45;;;18.50;63.30;20.20;100974.00;;;;5076814;28;20644;-78
2023/09/01 03:55:24;;;;;;;6.45;3.72;;;18.50;63.30;20.20;100964.00;;;;5084282;28;20211;-78
2023/09/01 03:57:50;;;;;;;7.43;3.60;;;18.50;63.30;20.20;100963.00;;;;5086632;28;20207;-77
2023/09/01 04:00:19;;;;;;;4.97;3.67;;;18.50;63.20;20.30;100965.00;;;;5074168;28;20864;-78
2023/09/01 04:02:46;;;;;;;5.45;3.65;;;18.50;63.20;20.30;100962.00;;;;5089823;28;20201;-78
2023/09/01 04:05:14;;;;;;;7.60;4.38;;;18.50;64.00;20.30;100967.00;;;;5089819;28;20202;-78
2023/09/01 04:07:41;;;;;;;7.40;4.13;;;18.60;63.30;20.30;100969.00;;;;5085310;28;20194;-78
2023/09/01 04:10:09;;;;;;;5.03;3.75;;;18.60;63.30;20.30;100965.00;;;;5088070;28;20194;-78
2023/09/01 04:12:37;;;;;;;6.80;4.65;;;18.60;63.30;20.30;100963.00;;;;5082940;28;20207;-78
2023/09/01 04:15:06;;;;;;;5.30;3.85;;;18.60;63.40;20.30;100972.00;;;;5088725;28;20197;-78
2023/09/01 04:17:33;;;;;;;6.38;3.83;;;18.60;63.40;20.30;100967.00;;;;5089387;28;20210;-78
2023/09/01 04:20:00;;;;;;;5.10;4.10;;;18.60;63.40;20.30;100974.00;;;;5089336;28;20574;-78
2023/09/01 04:22:27;;;;;;;8.05;4.22;;;18.70;63.50;20.40;100973.00;;;;5079765;28;20312;-78
2023/09/01 04:24:54;;;;;;;6.10;4.13;;;18.70;63.50;20.40;100971.00;;;;5083736;28;20251;-79
2023/09/01 04:27:22;;;;;;;5.72;4.10;;;18.60;63.40;20.40;100969.00;;;;5088241;28;20736;-78
2023/09/01 04:29:51;;;;;;;5.75;4.30;;;18.60;64.10;20.40;100970.00;;;;5085181;28;20641;-79
2023/09/01 04:32:18;;;;;;;6.25;3.92;;;18.70;63.50;20.40;100965.00;;;;5077899;28;20831;-79
2023/09/01 04:34:45;;;;;;;5.22;3.75;;;18.70;63.50;20.40;100960.00;;;;5088604;28;20672;-79
2023/09/01 04:37:12;;;;;;;5.85;3.55;;;18.70;63.50;20.40;100955.00;;;;5084353;28;20205;-79
2023/09/01 04:39:39;;;;;;;5.40;3.90;;;18.70;63.50;20.40;100956.00;;;;5088416;28;20237;-80
2023/09/01 04:42:06;;;;;;;7.80;4.53;;;18.70;63.50;20.40;100970.00;;;;5088233;28;20229;-79
2023/09/01 04:44:34;;;;;;;5.90;4.10;;;18.70;63.50;20.40;100973.00;;;;5088119;28;20194;-79
2023/09/01 04:47:03;;;;;;;6.20;4.10;;;18.70;63.50;20.40;100971.00;;;;5072730;28;20274;-79
2023/09/01 04:49:30;;;;;;;4.57;3.53;;;18.70;63.60;20.50;100970.00;;;;5086983;28;20683;-79
2023/09/01 04:51:57;;;;;;;6.95;4.32;;;18.70;63.60;20.50;100980.00;;;;5087475;28;20222;-79
2023/09/01 04:54:24;;;;;;;7.22;4.38;;;18.70;63.70;20.50;100982.00;;;;5078925;28;20202;-78
2023/09/01 04:56:51;;;;;;;6.57;4.82;;;18.80;63.80;20.50;100979.00;;;;5088786;28;20198;-79
2023/09/01 04:59:18;;;;;;;7.53;4.22;;;18.80;63.80;20.50;100976.00;;;;5087768;28;20209;-79
2023/09/01 05:01:46;;;;;;;5.28;4.32;;;18.80;63.80;20.50;100982.00;;;;5085469;28;20244;-79
2023/09/01 05:04:15;;;;;;;3.92;3.53;;;18.80;63.80;20.50;100985.00;;;;5082476;28;20198;-79
2023/09/01 05:06:42;;;;;;;6.15;4.13;;;18.80;63.80;20.50;100980.00;;;;5074250;28;20257;-79
2023/09/01 05:09:09;;;;;;;4.47;3.47;;;18.80;63.80;20.50;100976.00;;;;5086318;28;20281;-80
2023/09/01 05:11:37;;;;;;;8.90;4.97;;;18.80;63.80;20.50;100980.00;;;;5080111;28;20202;-79
2023/09/01 05:14:04;;;;;;;6.55;4.13;;;18.80;63.90;20.60;100983.00;;;;5074569;28;20218;-79
2023/09/01 05:16:31;;;;;;;4.10;3.63;;;18.90;63.90;20.60;100985.00;;;;5087651;28;20202;-80
2023/09/01 05:18:58;;;;;;;6.35;4.78;;;18.80;63.90;20.60;100976.00;;;;5069527;28;20191;-79
2023/09/01 05:21:27;;;;;;;5.57;3.65;;;18.90;63.90;20.60;100985.00;;;;5087605;28;20225;-79
2023/09/01 05:23:54;;;;;;;8.27;4.65;;;18.80;63.90;20.60;100985.00;;;;5087564;28;20195;-77
2023/09/01 05:26:21;;;;;;;6.15;4.20;;;18.80;63.90;20.60;100982.00;;;;5085275;28;20194;-78
2023/09/01 05:28:48;;;;;;;6.93;3.58;;;18.90;64.00;20.60;100981.00;;;;5086572;28;20773;-78
2023/09/01 05:31:15;;;;;;;6.82;4.93;;;18.90;64.00;20.60;100984.00;;;;5088563;28;20190;-80
2023/09/01 05:33:42;;;;;;;6.40;3.75;;;18.90;64.00;20.70;100987.00;;;;5081809;28;20202;-81
2023/09/01 05:36:08;;;;;;;5.35;3.58;;;18.90;63.90;20.70;100985.00;;;;5086685;28;20198;-80
2023/09/01 05:38:37;;;;;;;6.68;3.72;;;18.90;64.00;20.70;100987.00;;;;5076393;28;20650;-81
2023/09/01 05:41:05;;;;;;;6.90;4.45;;;18.90;64.00;20.70;100985.00;;;;5067743;28;20222;-80
2023/09/01 05:43:32;;;;;;;6.88;4.22;;;19.00;64.10;20.70;100986.00;;;;5085463;28;20194;-80
2023/09/01 05:45:59;;;;;;;5.65;3.97;;;19.00;64.10;20.70;100984.00;;;;5082009;28;20258;-80
2023/09/01 05:48:26;;;;;;;5.03;3.97;;;19.00;64.10;20.70;100975.00;;;;5087390;28;20199;-79
2023/09/01 05:50:53;;;;;;;6.60;3.65;;;19.00;64.10;20.70;100979.00;;;;5086646;28;20201;-80
2023/09/01 05:53:20;;;;;;;4.15;3.75;;;19.00;64.10;20.80;100973.00;;;;5082504;28;20234;-80
2023/09/01 05:55:49;;;;;;;4.93;3.95;;;19.00;64.10;20.80;100977.00;;;;5076636;28;20202;-80
2023/09/01 05:58:16;;;;;;;6.35;3.33;;;19.10;64.10;20.80;100975.00;;;;5083910;28;20664;-79
2023/09/01 06:00:43;;;;;;;7.43;3.10;;;19.10;64.10;20.80;100980.00;;;;5086713;28;20233;-80
2023/09/01 06:03:10;;;;;;;5.20;3.25;;;19.10;64.10;20.80;100972.00;;;;5085085;28;20209;-79
2023/09/01 06:05:37;;;;;;;5.72;3.92;;;19.20;64.20;20.90;100980.00;;;;5081469;28;20206;-77
2023/09/01 06:08:05;;;;;;;7.20;3.63;;;19.20;64.20;20.90;100969.00;;;;5081716;28;20197;-78
2023/09/01 06:10:32;;;;;;;4.07;3.10;;;19.20;64.20;20.90;100975.00;;;;5079752;28;20194;-78
2023/09/01 06:13:01;;;;;;;7.22;3.72;;;19.20;64.60;20.90;100974.00;;;;5079188;28;20195;-78
2023/09/01 06:15:28;;;;;;;6.22;3.80;;;19.20;64.30;21.00;100976.00;;;;5067387;28;20187;-79
2023/09/01 06:17:55;;;;;;;4.55;3.80;;;19.30;64.30;21.00;100982.00;;;;5085236;28;20198;-78
2023/09/01 06:20:22;;;;;;;6.38;3.60;;;19.30;64.30;21.00;100985.00;;;;5089387;28;20198;-78
2023/09/01 06:22:50;;;;;;;5.60;3.90;;;19.30;64.30;21.00;100989.00;;;;5081676;28;20599;-78
2023/09/01 06:25:17;;;;;;;6.68;3.70;;;19.40;64.40;21.10;100994.00;;;;5080076;28;20198;-78
2023/09/01 06:27:44;;;;;;;4.22;3.10;;;19.40;64.30;21.10;101003.00;;;;5089955;28;21060;-78
2023/09/01 06:30:13;;;;;;;4.45;3.47;;;19.40;64.30;21.10;101002.00;;;;5090892;28;20195;-79
2023/09/01 06:32:40;;;;;;;7.00;3.38;;;19.50;64.20;21.20;101006.00;;;;5090779;28;20202;-79
2023/09/01 06:35:08;;;;;;;4.53;3.00;;;19.50;64.10;21.20;101005.00;;;;5089320;28;20202;-78
2023/09/01 06:37:35;;;;;;;6.97;3.45;;;19.50;64.10;21.30;101000.00;;;;5090140;28;20571;-79
2023/09/01 06:40:03;;;;;;;7.75;3.30;;;19.50;64.10;21.30;101010.00;;;;5091052;28;20213;-79
2023/09/01 06:42:30;;;;;;;9.73;3.97;;;19.60;64.10;21.30;101007.00;;;;5090177;28;20226;-78
2023/09/01 06:44:57;;;;;;;6.82;3.42;;;19.60;64.00;21.30;101001.00;;;;5091072;28;20201;-78
2023/09/01 06:47:25;;;;;;;5.30;3.42;;;19.60;64.00;21.30;101004.00;;;;5090490;28;20214;-78
2023/09/01 06:49:53;;;;;;;4.28;3.15;;;19.70;64.00;21.40;100999.00;;;;5090594;28;20227;-78
2023/09/01 06:52:20;;;;;;;5.70;3.65;;;19.70;64.00;21.40;101006.00;;;;5090877;28;20230;-79
2023/09/01 06:54:47;;;;;;;4.85;3.38;;;19.70;64.00;21.40;101007.00;;;;5090754;28;20209;-78
2023/09/01 06:57:14;;;;;;;4.57;3.00;;;19.80;64.00;21.50;101006.00;;;;5090539;28;20202;-78
2023/09/01 06:59:41;;;;;;;6.55;3.40;;;19.80;64.00;21.50;101010.00;;;;5091395;28;20202;-79
2023/09/01 07:02:08;;;;;;;3.78;3.08;;;19.80;63.90;21.50;101012.00;;;;5089688;28;20614;-78
2023/09/01 07:04:36;;;;;;;5.40;3.13;;;19.80;63.80;21.50;101018.00;;;;5089640;28;20672;-78
2023/09/01 07:07:04;;;;;;;7.47;3.83;;;19.90;63.80;21.60;101004.00;;;;5090558;28;20210;-79
2023/09/01 07:09:30;;;;;;;4.32;2.65;;;19.90;63.80;21.60;101004.00;;;;5090933;28;20190;-78
2023/09/01 07:11:58;;;;;;;4.50;3.15;;;19.90;63.70;21.60;101004.00;;;;5090053;28;20187;-78
2023/09/01 07:14:25;;;;;;;5.05;3.20;;;19.90;63.60;21.60;101004.00;;;;5090631;28;20251;-78
2023/09/01 07:16:52;;;;;;;5.50;3.35;;;20.00;63.70;21.70;101009.00;;;;5090683;28;20198;-79
2023/09/01 07:19:19;;;;;;;3.50;3.13;;;20.00;63.70;21.70;101005.00;;;;5089793;28;20704;-79
2023/09/01 07:21:47;;;;;;;4.00;3.30;;;20.00;63.70;21.70;100997.00;;;;5085336;28;20229;-79
2023/09/01 07:24:14;;;;;;;3.38;3.03;;;20.00;63.60;21.70;100995.00;;;;5074154;28;20217;-79
2023/09/01 07:26:41;;;;;;;5.63;3.22;;;20.00;63.70;21.70;101000.00;;;;5079644;28;20199;-79
2023/09/01 07:29:08;;;;;;;5.15;3.28;;;20.10;63.70;21.70;100994.00;;;;5070188;28;20797;-78
2023/09/01 07:31:35;;;;;;;4.35;3.25;;;20.10;63.70;21.80;100997.00;;;;5080297;28;20669;-78
2023/09/01 07:34:02;;;;;;;4.03;3.33;;;20.10;63.70;21.80;100997.00;;;;5089024;28;20745;-79
2023/09/01 07:36:29;;;;;;;5.78;2.85;;;20.10;63.60;21.80;100993.00;;;;5089568;28;20220;-78
2023/09/01 07:38:57;;;;;;;4.35;3.35;;;20.10;63.60;21.80;100988.00;;;;5074650;28;20193;-79
2023/09/01 07:41:24;;;;;;;5.07;3.05;;;20.20;63.60;21.80;100983.00;;;;5090281;28;20205;-78
2023/09/01 07:43:51;;;;;;;4.70;3.28;;;20.20;63.50;21.90;100982.00;;;;5089928;28;20691;-78
2023/09/01 07:46:18;;;;;;;3.50;3.15;;;20.20;63.50;21.90;100979.00;;;;5090002;28;20206;-78
2023/09/01 07:48:46;;;;;;;6.10;3.70;;;20.20;63.50;21.90;100978.00;;;;5089904;28;20206;-78
2023/09/01 07:51:14;;;;;;;5.32;3.45;;;20.20;63.50;21.90;100983.00;;;;5090415;28;20201;-78
2023/09/01 07:53:41;;;;;;;5.43;3.50;;;20.30;63.50;21.90;100978.00;;;;5110096;28;20229;-78
2023/09/01 07:56:11;;;;;;;4.53;2.80;;;20.30;63.50;21.90;100985.00;;;;5110264;28;20197;-78
2023/09/01 07:58:38;;;;;;;4.63;2.58;;;20.30;63.60;22.00;100983.00;;;;5097178;28;20202;-78
2023/09/01 08:01:05;;;;;;;5.22;2.60;;;20.30;63.60;22.00;100983.00;;;;5089148;28;20214;-79
2023/09/01 08:03:33;;;;;;;4.82;3.13;;;20.30;63.60;22.00;100986.00;;;;5090187;28;20222;-79
2023/09/01 08:06:00;;;;;;;3.22;2.92;;;20.40;63.60;22.00;100985.00;;;;5089937;28;20671;-78
2023/09/01 08:08:27;;;;;;;3.90;3.00;;;20.40;63.50;22.10;100996.00;;;;5089240;28;20660;-78
2023/09/01 08:10:55;;;;;;;7.03;2.90;;;20.40;63.50;22.00;100998.00;;;;5089588;28;20204;-78
2023/09/01 08:13:23;;;;;;;4.65;2.95;;;20.40;63.50;22.10;100998.00;;;;5089244;28;20193;-79
2023/09/01 08:15:51;;;;;;;4.63;2.90;;;20.50;63.50;22.10;101009.00;;;;5089351;28;20201;-79
2023/09/01 08:18:17;;;;;;;3.65;2.67;;;20.40;63.50;22.10;101007.00;;;;5089790;28;20193;-79
2023/09/01 08:20:44;;;;;;;4.22;2.60;;;20.50;63.50;22.20;101008.00;;;;5089358;28;20202;-79
2023/09/01 08:23:11;;;;;;;5.50;3.10;;;20.50;63.50;22.20;101013.00;;;;5088607;28;20218;-79
2023/09/01 08:25:38;;;;;;;5.78;2.75;;;20.50;63.50;22.20;101012.00;;;;5089080;28;20206;-79
2023/09/01 08:28:07;;;;;;;3.95;2.33;;;20.60;63.50;22.20;101008.00;;;;5082978;28;20199;-78
2023/09/01 08:30:35;;;;;;;5.13;2.60;;;20.60;63.40;22.20;101010.00;;;;5068563;28;20732;-79
2023/09/01 08:33:04;;;;;;;4.35;2.70;;;20.60;63.40;22.30;101007.00;;;;5079419;28;20297;-78
2023/09/01 08:35:31;;;;;;;7.25;3.72;;;20.60;63.40;22.30;101005.00;;;;5087603;28;20198;-79
2023/09/01 08:37:58;;;;;;;6.25;2.47;;;20.60;63.40;22.30;101009.00;;;;5082478;28;20194;-79
2023/09/01 08:40:25;;;;;;;4.45;2.90;;;20.70;63.50;22.40;101013.00;;;;5076317;28;20202;-79
2023/09/01 08:42:54;;;;;;;4.07;2.97;;;20.70;63.50;22.40;101010.00;;;;5079880;28;20221;-78
2023/09/01 08:45:22;;;;;;;3.97;2.72;;;20.70;63.50;22.40;101015.00;;;;5079301;28;20195;-79
2023/09/01 08:47:53;;;;;;;6.60;3.38;;;20.80;63.60;22.40;101018.00;;;;5076045;28;20187;-79
2023/09/01 08:50:21;;;;;;;4.90;2.33;;;20.80;63.60;22.50;101031.00;;;;5087743;28;20194;-79
2023/09/01 08:52:49;;;;;;;3.45;2.70;;;20.90;63.60;22.50;101023.00;;;;5087725;28;20309;-79
2023/09/01 08:55:17;;;;;;;5.65;3.45;;;20.90;63.60;22.60;101026.00;;;;5088621;28;20208;-79
2023/09/01 08:57:47;;;;;;;3.13;2.13;;;20.80;63.60;22.60;101024.00;;;;5088254;28;20652;-78
2023/09/01 09:00:16;;;;;;;3.78;2.50;;;20.90;63.50;22.60;101017.00;;;;5089078;28;20272;-79
2023/09/01 09:02:45;;;;;;;3.38;2.65;;;20.90;63.40;22.60;101018.00;;;;5087389;28;20312;-79
2023/09/01 09:05:15;;;;;;;4.10;2.95;;;20.90;63.30;22.60;101021.00;;;;5088830;28;20194;-79
2023/09/01 09:07:43;;;;;;;4.93;3.35;;;20.90;63.20;22.60;101010.00;;;;5088633;28;20210;-78
2023/09/01 09:10:10;;;;;;;6.55;2.90;;;21.00;63.30;22.60;101012.00;;;;5089000;28;20201;-79
2023/09/01 09:12:41;;;;;;;4.10;2.55;;;21.00;63.30;22.60;101017.00;;;;5088574;28;20212;-79
2023/09/01 09:15:10;;;;;;;4.43;2.67;;;21.00;63.30;22.70;101016.00;;;;5079303;28;20256;-78
2023/09/01 09:17:43;;;;;;;7.95;2.70;;;21.00;63.20;22.60;101016.00;;;;5076391;28;20193;-79
2023/09/01 09:20:14;;;;;;;4.40;2.88;;;21.10;63.20;22.70;101014.00;;;;5082487;28;20245;-79
2023/09/01 09:22:55;;;;;;;4.32;2.33;;;21.10;63.20;22.60;101014.00;;;;5074555;28;20218;-80
2023/09/01 09:25:28;;;;;;;6.07;3.13;;;21.10;63.20;22.70;101019.00;;;;5074768;28;20198;-80
2023/09/01 09:27:56;;;;;;;4.85;2.95;;;21.10;63.20;22.70;101013.00;;;;5080494;28;21076;-80
2023/09/01 09:30:26;;;;;;;3.00;2.53;;;21.10;63.20;22.70;101020.00;;;;5086136;28;20229;-80
2023/09/01 09:33:03;;;;;;;4.35;2.75;;;21.10;63.20;22.70;101025.00;;;;5087713;28;20198;-80
2023/09/01 09:35:33;;;;;;;3.50;2.55;;;21.10;63.30;22.80;101029.00;;;;5087780;28;20255;-80
2023/09/01 09:38:01;;;;;;;4.72;3.00;;;21.10;63.20;22.80;101036.00;;;;5087685;28;20198;-80
2023/09/01 09:40:29;;;;;;;5.18;2.88;;;21.20;63.20;22.80;101037.00;;;;5087449;28;20305;-79
2023/09/01 09:42:59;;;;;;;3.47;2.58;;;21.20;63.10;22.80;101045.00;;;;5086747;28;20232;-80
2023/09/01 09:45:31;;;;;;;3.63;2.85;;;21.20;63.10;22.80;101048.00;;;;5072157;28;20198;-79
2023/09/01 09:48:01;;;;;;;3.88;2.40;;;21.20;63.10;22.80;101052.00;;;;5088433;28;20745;-79
2023/09/01 09:50:31;;;;;;;5.05;2.90;;;21.20;63.10;22.80;101050.00;;;;5074667;28;20195;-79
2023/09/01 09:53:02;;;;;;;4.05;2.85;;;21.20;63.20;22.80;101046.00;;;;5085550;28;20237;-80
2023/09/01 09:55:31;;;;;;;4.40;2.35;;;21.20;63.30;22.90;101046.00;;;;5077769;28;20222;-80
2023/09/01 09:58:05;;;;;;;6.90;2.97;;;21.20;63.20;22.80;101048.00;;;;5088035;28;20202;-79
2023/09/01 10:00:44;;;;;;;6.88;2.80;;;21.20;63.20;22.80;101058.00;;;;5076210;28;20210;-79
2023/09/01 10:03:12;;;;;;;4.80;2.95;;;21.30;63.20;22.90;101054.00;;;;5078284;28;20700;-79
2023/09/01 10:05:42;;;;;;;4.28;2.83;;;21.30;63.10;22.90;101058.00;;;;5080391;28;20199;-79
2023/09/01 10:08:09;;;;;;;4.75;2.63;;;21.30;63.10;22.90;101059.00;;;;5082514;28;20213;-79
2023/09/01 10:10:37;;;;;;;5.00;2.47;;;21.30;63.10;22.90;101063.00;;;;5079479;28;20190;-79
2023/09/01 10:13:06;;;;;;;4.78;2.90;;;21.30;63.80;22.90;101066.00;;;;5081512;28;20191;-79
2023/09/01 10:15:34;;;;;;;3.60;2.70;;;21.30;63.10;22.90;101069.00;;;;5084546;28;20672;-79
2023/09/01 10:18:04;;;;;;;6.03;3.17;;;21.30;63.20;22.90;101074.00;;;;5086355;28;20256;-79
2023/09/01 10:20:34;;;;;;;3.58;2.67;;;21.30;63.30;23.00;101075.00;;;;5081516;28;20274;-78
2023/09/01 10:23:04;;;;;;;5.88;3.42;;;21.30;63.30;22.90;101069.00;;;;5081623;28;20229;-79
2023/09/01 10:25:32;;;;;;;5.32;3.20;;;21.30;63.40;23.00;101072.00;;;;5083815;28;20202;-79
2023/09/01 10:28:10;;;;;;;6.88;3.17;;;21.40;63.40;22.90;101075.00;;;;5083034;28;20203;-80
2023/09/01 10:30:39;;;;;;;5.18;3.70;;;21.40;63.30;23.00;101071.00;;;;5083192;28;20252;-79
2023/09/01 10:33:11;;;;;;;4.32;3.78;;;21.40;63.30;23.00;101076.00;;;;5077503;28;20202;-79
2023/09/01 10:35:45;;;;;;;5.90;3.10;;;21.40;63.40;23.00;101079.00;;;;5082734;28;20691;-80
2023/09/01 10:38:19;;;;;;;3.53;2.67;;;21.40;63.40;23.00;101079.00;;;;5088214;28;20226;-79
2023/09/01 10:40:48;;;;;;;3.65;3.00;;;21.40;63.50;23.10;101079.00;;;;5089738;28;20198;-79
2023/09/01 10:43:52;;;;;;;4.97;2.75;;;21.40;63.50;23.00;101088.00;;;;5089850;28;20218;-79
2023/09/01 10:46:29;;;;;;;4.30;2.70;;;21.40;63.50;23.10;101085.00;;;;5069931;28;20203;-79
2023/09/01 10:48:59;;;;;;;3.05;2.80;;;21.50;63.50;23.10;101080.00;;;;5087997;28;20209;-78
2023/09/01 10:51:28;;;;;;;4.50;3.03;;;21.50;63.50;23.10;101074.00;;;;5089432;28;20190;-79
2023/09/01 10:54:00;;;;;;;5.65;3.28;;;21.50;63.50;23.20;101080.00;;;;5090543;28;20194;-79